Portada
METAR-TAF:

METAR-TAF

Aeroports :

Taylorville Municipal Airport

Taylorville, Illinois, Estats Units d'Amèrica

latitud: 39-32-03N, longitud: 089-19-40W, altitud: 190 m

Observació

L'informe es va fer fa 47 minuts, a les 17:15 UTC
Vent 4 kt del Oest/Sud-Oest
Temperatura 30°C
Humitat 55%
Pressió 1026 hPa
Visibilitat: 16.1 km
Cel clar

METAR: KTAZ 201715Z AUTO 24004KT 10SM CLR 30/20 A3030 RMK AO2 T03040197

Hora: 13:02 (18:02 UTC)


TAF: manca

Observacions i pronòstics meteorològics de més de 4000 aeroports (METAR i TAF).

Les estacions disponibles són els punts grocs i vermells al mapa.

Posi el ratolí al punt desitjat per veure el nom de l'estació.

Feu clic per veure les observacions i els pronòstics meteorològics.

Per canviar el mapa: feu clic els botons verds amb una creu de color negre per apropar; al botó verd amb un guió per allunyar la imatge; o en les fletxes verdes per a mapes adjacents.


METAR-TAF: